Terminal Aerodrome Forecast
Issued by NWS

Home | Current Version | Previous Version | Text Only | Print | Product List | Glossary On
Versions: 1 2 3 4 5 6 7 8 9 10 11
359
FTUS45 KABQ 102339
TAFGUP
TAF
KGUP 102339Z 1100/1124 26006KT P6SM SKC
     FM110100 VRB04KT P6SM SKC
     FM112000 27007KT P6SM SKC=

USA.gov is the U.S. government's official web portal to all federal, state and local government web resources and services.